createdAt,value
2022-12-05T00:01:35.175Z,17.75
2022-12-05T00:04:09.660Z,17.15
2022-12-05T00:06:37.373Z,20.15
2022-12-05T00:09:05.517Z,17.85
2022-12-05T00:11:34.956Z,17.52
2022-12-05T00:14:04.674Z,20.08
2022-12-05T00:16:35.790Z,18.27
2022-12-05T00:19:06.392Z,19.60
2022-12-05T00:21:35.639Z,17.80
2022-12-05T00:24:03.802Z,21.25
2022-12-05T00:26:31.325Z,17.00
2022-12-05T00:28:58.450Z,17.23
2022-12-05T00:31:26.589Z,21.20
2022-12-05T00:33:54.070Z,19.73
2022-12-05T00:36:23.357Z,16.92
2022-12-05T00:38:50.384Z,17.90
2022-12-05T00:41:19.888Z,19.20
2022-12-05T00:43:46.597Z,20.05
2022-12-05T00:46:16.177Z,20.58
2022-12-05T00:48:42.967Z,19.70
2022-12-05T00:51:12.979Z,16.90
2022-12-05T00:53:40.061Z,16.27
2022-12-05T00:56:10.276Z,17.67
2022-12-05T00:58:37.223Z,19.80
2022-12-05T01:01:17.006Z,18.98
2022-12-05T01:03:44.643Z,19.27
2022-12-05T01:06:12.321Z,19.45
2022-12-05T01:08:39.200Z,18.85
2022-12-05T01:11:07.679Z,17.73
2022-12-05T01:13:34.610Z,16.27
2022-12-05T01:16:01.902Z,17.83
2022-12-05T01:18:29.406Z,19.08
2022-12-05T01:20:56.243Z,18.45
2022-12-05T01:23:22.947Z,19.02
2022-12-05T01:25:51.306Z,19.65
2022-12-05T01:28:18.295Z,18.60
2022-12-05T01:30:47.648Z,18.63
2022-12-05T01:33:14.431Z,18.45
2022-12-05T01:35:41.789Z,17.13
2022-12-05T01:38:10.142Z,20.08
2022-12-05T01:40:37.017Z,17.70
2022-12-05T01:43:06.272Z,16.77
2022-12-05T01:45:39.307Z,17.88
2022-12-05T01:48:11.940Z,19.45
2022-12-05T01:50:41.180Z,19.35
2022-12-05T01:53:07.861Z,18.73
2022-12-05T01:55:36.102Z,20.25
2022-12-05T01:58:05.342Z,19.33
2022-12-05T02:00:32.446Z,20.02
2022-12-05T02:03:02.487Z,19.65
2022-12-05T02:05:31.514Z,17.98
2022-12-05T02:07:59.567Z,18.35
2022-12-05T02:10:28.264Z,18.08
2022-12-05T02:12:55.038Z,20.08
2022-12-05T02:15:37.213Z,18.10
2022-12-05T02:18:25.791Z,16.88
2022-12-05T02:21:05.165Z,18.63
2022-12-05T02:23:31.536Z,18.52
2022-12-05T02:26:25.891Z,19.05
2022-12-05T02:29:13.082Z,17.90
2022-12-05T02:31:53.338Z,17.98
2022-12-05T02:34:37.683Z,19.13
2022-12-05T02:37:14.770Z,21.27
2022-12-05T02:39:57.828Z,18.10
2022-12-05T02:42:32.851Z,18.05
2022-12-05T02:45:11.549Z,16.63
2022-12-05T02:47:44.070Z,21.05
2022-12-05T02:50:16.144Z,18.20
2022-12-05T02:52:45.640Z,21.25
2022-12-05T02:55:14.359Z,19.25
2022-12-05T02:57:45.543Z,20.48
2022-12-05T03:00:12.541Z,18.98
2022-12-05T03:02:39.814Z,18.95
2022-12-05T03:05:16.044Z,18.75
2022-12-05T03:07:46.714Z,19.98
2022-12-05T03:10:15.427Z,18.27
2022-12-05T03:12:52.039Z,18.88
2022-12-05T03:15:24.577Z,19.02
2022-12-05T03:17:59.895Z,17.42
2022-12-05T03:20:34.475Z,19.83
2022-12-05T03:23:11.732Z,19.15
2022-12-05T03:25:52.284Z,20.23
2022-12-05T03:28:40.904Z,18.58
2022-12-05T03:31:11.205Z,20.05
2022-12-05T03:33:44.352Z,16.45
2022-12-05T03:36:28.527Z,19.33
2022-12-05T03:39:08.907Z,20.75
2022-12-05T03:41:42.959Z,17.10
2022-12-05T03:44:22.103Z,19.92
2022-12-05T03:47:14.870Z,17.90
2022-12-05T03:49:49.368Z,17.63
2022-12-05T03:52:29.382Z,18.05
2022-12-05T03:55:01.081Z,18.45
2022-12-05T03:57:32.987Z,18.50
2022-12-05T04:00:10.662Z,18.52
2022-12-05T04:02:50.055Z,15.48
2022-12-05T04:05:21.797Z,15.95
2022-12-05T04:08:12.707Z,17.67
2022-12-05T04:10:50.275Z,15.32
2022-12-05T04:13:40.533Z,15.82
2022-12-05T04:16:43.458Z,16.92
2022-12-05T04:19:09.781Z,16.00
2022-12-05T04:21:43.663Z,16.35
2022-12-05T04:24:50.765Z,16.85
2022-12-05T04:27:31.196Z,15.85
2022-12-05T04:30:08.946Z,16.17
2022-12-05T04:32:39.612Z,15.82
2022-12-05T04:35:14.154Z,15.57
2022-12-05T04:37:44.546Z,14.60
2022-12-05T04:40:35.766Z,15.20
2022-12-05T04:43:04.155Z,14.50
2022-12-05T04:45:32.518Z,14.73
2022-12-05T04:48:04.850Z,17.17
2022-12-05T04:50:33.380Z,16.92
2022-12-05T04:53:01.830Z,13.90
2022-12-05T04:55:31.576Z,17.10
2022-12-05T04:57:57.994Z,15.85
2022-12-05T05:00:28.280Z,14.82
2022-12-05T05:03:00.996Z,15.80
2022-12-05T05:05:28.709Z,15.75
2022-12-05T05:07:55.571Z,11.80
2022-12-05T05:10:37.949Z,15.95
2022-12-05T05:13:06.791Z,15.98
2022-12-05T05:15:33.134Z,16.17
2022-12-05T05:17:59.518Z,15.93
2022-12-05T05:20:27.168Z,14.60
2022-12-05T05:22:56.202Z,15.30
2022-12-05T05:25:23.722Z,14.65
2022-12-05T05:27:55.823Z,16.92
2022-12-05T05:30:24.800Z,15.27
2022-12-05T05:32:51.548Z,15.85
2022-12-05T05:35:18.183Z,16.30
2022-12-05T05:37:44.706Z,14.63
2022-12-05T05:40:13.274Z,15.63
2022-12-05T05:42:44.813Z,18.27
2022-12-05T05:45:12.577Z,16.27
2022-12-05T05:47:39.256Z,17.08
2022-12-05T05:50:10.051Z,13.70
2022-12-05T05:52:38.177Z,18.08
2022-12-05T05:55:06.010Z,16.50
2022-12-05T05:57:32.632Z,15.68
2022-12-05T06:00:02.050Z,16.83
2022-12-05T06:02:33.321Z,15.82
2022-12-05T06:04:59.932Z,16.73
2022-12-05T06:07:26.635Z,16.63
2022-12-05T06:09:53.155Z,17.23
2022-12-05T06:12:19.615Z,18.13
2022-12-05T06:14:51.694Z,16.15
2022-12-05T06:17:18.361Z,17.67
2022-12-05T06:19:44.868Z,16.63
2022-12-05T06:22:13.539Z,16.80
2022-12-05T06:24:39.910Z,15.93
2022-12-05T06:27:06.524Z,16.00
2022-12-05T06:29:37.421Z,16.05
2022-12-05T06:32:04.194Z,16.73
2022-12-05T06:34:35.708Z,14.75
2022-12-05T06:37:02.312Z,16.65
2022-12-05T06:39:30.943Z,14.07
2022-12-05T06:41:57.663Z,13.30
2022-12-05T06:44:26.909Z,14.63
2022-12-05T06:46:54.242Z,16.17
2022-12-05T06:49:24.056Z,15.70
2022-12-05T06:51:54.637Z,16.17
2022-12-05T06:54:21.044Z,15.13
2022-12-05T06:56:47.571Z,14.98
2022-12-05T06:59:13.989Z,15.07
2022-12-05T07:01:43.150Z,15.10
2022-12-05T07:04:15.697Z,15.27
2022-12-05T07:06:51.026Z,13.85
2022-12-05T07:09:22.739Z,16.45
2022-12-05T07:11:50.501Z,15.63
2022-12-05T07:14:46.554Z,14.88
2022-12-05T07:17:09.524Z,13.93
2022-12-05T07:19:36.278Z,14.68
2022-12-05T07:22:03.030Z,14.98
2022-12-05T07:24:29.552Z,14.85
2022-12-05T07:26:55.949Z,13.82
2022-12-05T07:29:24.504Z,16.25
2022-12-05T07:31:50.998Z,13.73
2022-12-05T07:34:17.564Z,15.02
2022-12-05T07:36:43.912Z,15.07
2022-12-05T07:39:12.690Z,14.95
2022-12-05T07:41:39.301Z,15.38
2022-12-05T07:44:10.756Z,15.13
2022-12-05T07:46:40.623Z,11.03
2022-12-05T07:49:10.036Z,15.27
2022-12-05T07:51:36.573Z,16.20
2022-12-05T07:54:03.182Z,15.60
2022-12-05T07:56:29.648Z,16.23
2022-12-05T07:58:56.203Z,13.98
2022-12-05T08:01:27.708Z,15.80
2022-12-05T08:03:56.214Z,17.63
2022-12-05T08:06:25.294Z,14.70
2022-12-05T08:08:53.155Z,15.07
2022-12-05T08:11:25.652Z,17.45
2022-12-05T08:16:24.343Z,15.38
2022-12-05T08:18:55.760Z,15.57
2022-12-05T08:21:25.355Z,15.18
2022-12-05T08:23:52.847Z,15.75
2022-12-05T08:26:30.898Z,14.88
2022-12-05T08:29:00.995Z,14.25
2022-12-05T08:31:30.091Z,15.75
2022-12-05T08:33:59.695Z,16.00
2022-12-05T08:36:30.418Z,15.07
2022-12-05T08:39:01.525Z,14.55
2022-12-05T08:41:30.036Z,16.00
2022-12-05T08:43:58.122Z,15.00
2022-12-05T08:46:24.701Z,16.02
2022-12-05T08:48:51.680Z,15.60
2022-12-05T08:51:18.194Z,16.83
2022-12-05T08:53:45.048Z,17.70
2022-12-05T08:56:12.427Z,18.08
2022-12-05T08:58:41.296Z,16.55
2022-12-05T09:01:13.310Z,15.77
2022-12-05T09:03:46.029Z,15.90
2022-12-05T09:06:22.748Z,16.20
2022-12-05T09:08:53.361Z,16.52
2022-12-05T09:11:25.678Z,20.00
2022-12-05T09:13:54.636Z,15.38
2022-12-05T09:16:24.204Z,15.88
2022-12-05T09:18:51.692Z,16.35
2022-12-05T09:21:22.759Z,15.30
2022-12-05T09:23:51.015Z,14.85
2022-12-05T09:26:22.307Z,14.95
2022-12-05T09:28:49.096Z,13.45
2022-12-05T09:31:21.254Z,15.23
2022-12-05T09:33:49.916Z,14.75
2022-12-05T09:36:20.134Z,14.10
2022-12-05T09:38:47.251Z,14.18
2022-12-05T09:41:51.536Z,14.10
2022-12-05T09:44:47.727Z,14.07
2022-12-05T09:47:29.361Z,13.75
2022-12-05T09:50:23.520Z,14.50
2022-12-05T09:53:27.945Z,12.95
2022-12-05T09:56:04.297Z,14.02
2022-12-05T09:58:55.982Z,13.07
2022-12-05T10:01:22.455Z,14.15
2022-12-05T10:04:14.746Z,13.35
2022-12-05T10:06:41.184Z,13.98
2022-12-05T10:09:33.951Z,13.50
2022-12-05T10:15:04.188Z,13.85
2022-12-05T10:20:13.835Z,13.70
2022-12-05T10:23:18.761Z,16.05
2022-12-05T10:25:59.697Z,14.65
2022-12-05T10:28:36.651Z,15.43
2022-12-05T10:31:09.684Z,13.02
2022-12-05T10:33:43.360Z,14.63
2022-12-05T10:36:14.245Z,13.27
2022-12-05T10:38:43.258Z,13.95
2022-12-05T10:41:13.282Z,13.38
2022-12-05T10:43:43.296Z,13.98
2022-12-05T10:46:17.176Z,14.48
2022-12-05T10:48:44.234Z,13.55
2022-12-05T10:51:16.491Z,14.25
2022-12-05T10:53:50.867Z,14.52
2022-12-05T10:56:39.901Z,12.65
2022-12-05T10:59:09.172Z,13.73
2022-12-05T11:01:40.128Z,12.25
2022-12-05T11:04:18.131Z,13.45
2022-12-05T11:07:23.497Z,12.10
2022-12-05T11:09:54.721Z,12.75
2022-12-05T11:12:42.756Z,13.80
2022-12-05T11:15:22.536Z,13.85
2022-12-05T11:17:50.321Z,12.68
2022-12-05T11:20:19.784Z,12.93
2022-12-05T11:22:48.981Z,13.52
2022-12-05T11:25:35.225Z,14.13
2022-12-05T11:28:17.231Z,13.80
2022-12-05T11:31:12.775Z,12.85
2022-12-05T11:33:39.649Z,13.20
2022-12-05T11:36:13.544Z,13.40
2022-12-05T11:38:41.483Z,11.98
2022-12-05T11:41:41.906Z,12.25
2022-12-05T11:44:32.124Z,12.63
2022-12-05T11:47:07.320Z,12.93
2022-12-05T11:50:07.570Z,13.15
2022-12-05T11:52:56.263Z,12.80
2022-12-05T11:55:37.042Z,12.95
2022-12-05T11:58:15.578Z,12.25
2022-12-05T12:01:05.263Z,19.48
2022-12-05T12:04:00.161Z,13.45
2022-12-05T12:06:41.906Z,14.85
2022-12-05T12:09:29.865Z,13.60
2022-12-05T12:12:02.629Z,15.13
2022-12-05T12:15:00.018Z,17.33
2022-12-05T12:17:47.443Z,15.48
2022-12-05T12:21:04.459Z,16.25
2022-12-05T12:23:43.076Z,17.35
2022-12-05T12:26:33.245Z,20.23
2022-12-05T12:29:18.334Z,14.30
2022-12-05T12:32:16.988Z,14.65
2022-12-05T12:35:01.531Z,17.30
2022-12-05T12:37:49.875Z,27.02
2022-12-05T12:40:35.649Z,19.02
2022-12-05T12:43:52.154Z,12.88
2022-12-05T12:46:53.261Z,14.57
2022-12-05T12:49:56.822Z,14.48
2022-12-05T12:52:31.321Z,14.85
2022-12-05T12:55:24.806Z,13.52
2022-12-05T12:57:51.207Z,14.32
2022-12-05T13:00:22.538Z,13.23
2022-12-05T13:03:05.491Z,13.50
2022-12-05T13:05:39.049Z,13.27
2022-12-05T13:08:37.693Z,12.18
2022-12-05T13:11:08.352Z,12.43
2022-12-05T13:13:40.531Z,13.20
2022-12-05T13:16:18.572Z,12.65
2022-12-05T13:18:47.225Z,12.23
2022-12-05T13:21:14.600Z,12.32
2022-12-05T13:23:48.139Z,12.05
2022-12-05T13:26:15.115Z,11.35
2022-12-05T13:28:58.374Z,10.07
2022-12-05T13:31:54.345Z,11.43
2022-12-05T13:34:26.947Z,11.45
2022-12-05T13:37:18.884Z,13.95
2022-12-05T13:40:13.215Z,12.25
2022-12-05T13:42:43.371Z,12.43
2022-12-05T13:45:15.784Z,10.07
2022-12-05T13:50:51.515Z,11.05
2022-12-05T13:53:43.550Z,11.50
2022-12-05T13:56:15.369Z,12.63
2022-12-05T13:58:43.545Z,11.57
2022-12-05T14:01:25.423Z,13.18
2022-12-05T14:03:51.935Z,9.18
2022-12-05T14:06:39.540Z,12.43
2022-12-05T14:09:17.885Z,10.25
2022-12-05T14:12:12.481Z,8.18
2022-12-05T14:14:57.443Z,7.53
2022-12-05T14:17:32.371Z,5.93
2022-12-05T14:20:23.512Z,6.20
2022-12-05T14:23:12.284Z,5.28
2022-12-05T14:26:02.120Z,5.10
2022-12-05T14:28:41.114Z,3.78
2022-12-05T14:31:24.328Z,2.90
2022-12-05T14:34:25.011Z,3.55
2022-12-05T14:36:52.997Z,2.95
2022-12-05T14:39:28.254Z,3.33
2022-12-05T14:41:59.503Z,3.25
2022-12-05T14:44:32.285Z,2.70
2022-12-05T14:47:05.673Z,3.35
2022-12-05T14:50:04.479Z,2.40
2022-12-05T14:52:34.422Z,2.50
2022-12-05T14:55:05.985Z,2.90
2022-12-05T14:57:41.064Z,2.33
2022-12-05T15:00:08.410Z,2.40
2022-12-05T15:02:43.457Z,2.35
2022-12-05T15:05:31.949Z,3.53
2022-12-05T15:08:00.066Z,2.72
2022-12-05T15:10:33.275Z,3.00
2022-12-05T15:13:08.095Z,3.05
2022-12-05T15:15:41.625Z,2.97
2022-12-05T15:18:27.410Z,3.03
2022-12-05T15:21:15.302Z,1.75
2022-12-05T15:23:44.871Z,1.63
2022-12-05T15:26:45.431Z,2.40
2022-12-05T15:29:17.258Z,3.75
2022-12-05T15:31:47.054Z,6.53
2022-12-05T15:34:32.039Z,4.63
2022-12-05T15:37:37.544Z,4.10
2022-12-05T15:40:10.573Z,3.58
2022-12-05T15:42:40.924Z,4.70
2022-12-05T15:45:16.066Z,4.45
2022-12-05T15:47:57.598Z,4.63
2022-12-05T15:50:30.636Z,5.50
2022-12-05T15:53:25.103Z,5.05
2022-12-05T15:55:56.005Z,5.90
2022-12-05T15:58:31.526Z,5.10
2022-12-05T16:01:16.441Z,4.97
2022-12-05T16:04:17.367Z,5.57
2022-12-05T16:06:53.687Z,4.35
2022-12-05T16:09:29.323Z,4.50
2022-12-05T16:11:57.626Z,4.22
2022-12-05T16:14:58.392Z,3.63
2022-12-05T16:17:19.370Z,3.22
2022-12-05T16:19:46.588Z,2.63
2022-12-05T16:22:15.322Z,2.40
2022-12-05T16:25:17.094Z,2.80
2022-12-05T16:28:04.094Z,2.90
2022-12-05T16:30:31.754Z,2.63
2022-12-05T16:33:13.950Z,2.65
2022-12-05T16:35:43.352Z,2.53
2022-12-05T16:38:31.853Z,3.28
2022-12-05T16:41:15.311Z,3.75
2022-12-05T16:43:44.591Z,2.78
2022-12-05T16:46:14.534Z,3.15
2022-12-05T16:48:41.830Z,2.65
2022-12-05T16:51:11.269Z,3.65
2022-12-05T16:53:39.715Z,3.80
2022-12-05T16:56:07.989Z,3.60
2022-12-05T16:58:35.735Z,17.05
2022-12-05T17:01:06.653Z,6.63
2022-12-05T17:03:35.654Z,6.47
2022-12-05T17:06:05.332Z,6.97
2022-12-05T17:08:32.073Z,7.28
2022-12-05T17:11:03.504Z,7.82
2022-12-05T17:13:31.902Z,4.00
2022-12-05T17:16:02.354Z,4.70
2022-12-05T17:18:32.208Z,4.32
2022-12-05T17:21:08.363Z,4.80
2022-12-05T17:23:34.746Z,6.63
2022-12-05T17:26:03.773Z,4.43
2022-12-05T17:28:30.455Z,3.30
2022-12-05T17:30:57.442Z,9.27
2022-12-05T17:33:25.313Z,48.65
2022-12-05T17:35:52.262Z,33.13
2022-12-05T17:38:21.972Z,24.98
2022-12-05T17:40:48.765Z,24.30
2022-12-05T17:43:23.092Z,12.80
2022-12-05T17:45:54.887Z,12.57
2022-12-05T17:48:23.744Z,12.85
2022-12-05T17:50:50.421Z,9.52
2022-12-05T17:53:18.891Z,7.93
2022-12-05T17:55:48.530Z,6.78
2022-12-05T17:58:18.045Z,4.35
2022-12-05T18:00:45.766Z,6.63
2022-12-05T18:03:17.947Z,5.28
2022-12-05T18:05:45.587Z,4.55
2022-12-05T18:08:12.595Z,4.35
2022-12-05T18:10:47.112Z,3.92
2022-12-05T18:13:14.880Z,3.65
2022-12-05T18:15:43.310Z,3.10
2022-12-05T18:18:17.956Z,2.97
2022-12-05T18:20:44.704Z,3.47
2022-12-05T18:23:11.147Z,3.85
2022-12-05T18:25:37.789Z,4.53
2022-12-05T18:28:04.434Z,4.88
2022-12-05T18:30:30.980Z,5.15
2022-12-05T18:33:00.331Z,5.25
2022-12-05T18:35:42.774Z,3.88
2022-12-05T18:38:12.854Z,3.42
2022-12-05T18:40:39.313Z,3.53
2022-12-05T18:43:08.325Z,3.83
2022-12-05T18:45:34.813Z,3.58
2022-12-05T18:48:22.959Z,4.32
2022-12-05T18:50:48.164Z,5.15
2022-12-05T18:53:17.418Z,5.35
2022-12-05T18:56:05.419Z,4.43
2022-12-05T18:58:30.668Z,5.22
2022-12-05T19:01:09.260Z,5.07
2022-12-05T19:03:39.871Z,3.83
2022-12-05T19:06:18.011Z,4.20
2022-12-05T19:08:44.868Z,5.53
2022-12-05T19:11:16.691Z,5.45
2022-12-05T19:13:43.685Z,5.95
2022-12-05T19:16:20.472Z,5.57
2022-12-05T19:18:47.250Z,4.78
2022-12-05T19:21:13.993Z,5.47
2022-12-05T19:23:40.452Z,4.05
2022-12-05T19:26:10.751Z,3.78
2022-12-05T19:28:37.898Z,5.07
2022-12-05T19:31:07.418Z,5.35
2022-12-05T19:33:36.156Z,5.85
2022-12-05T19:36:08.212Z,6.45
2022-12-05T19:38:35.109Z,4.03
2022-12-05T19:41:04.667Z,4.00
2022-12-05T19:43:35.462Z,4.18
2022-12-05T19:46:11.765Z,4.60
2022-12-05T19:48:38.432Z,4.53
2022-12-05T19:51:07.629Z,8.38
2022-12-05T19:53:38.505Z,7.55
2022-12-05T19:56:25.073Z,6.90
2022-12-05T19:58:53.650Z,8.32
2022-12-05T20:01:27.081Z,7.05
2022-12-05T20:03:59.697Z,6.63
2022-12-05T20:06:31.045Z,5.00
2022-12-05T20:09:01.411Z,4.80
2022-12-05T20:11:29.151Z,7.03
2022-12-05T20:14:00.628Z,4.50
2022-12-05T20:16:30.748Z,6.37
2022-12-05T20:18:59.247Z,7.60
2022-12-05T20:21:28.157Z,5.45
2022-12-05T20:23:55.153Z,4.97
2022-12-05T20:26:28.454Z,6.25
2022-12-05T20:28:58.902Z,5.20
2022-12-05T20:31:32.046Z,5.43
2022-12-05T20:33:58.581Z,4.97
2022-12-05T20:36:30.239Z,3.90
2022-12-05T20:39:10.263Z,5.50
2022-12-05T20:41:36.885Z,4.93
2022-12-05T20:44:05.598Z,4.80
2022-12-05T20:46:32.633Z,4.43
2022-12-05T20:48:59.883Z,5.43
2022-12-05T20:51:28.761Z,3.47
2022-12-05T20:53:56.666Z,3.90
2022-12-05T20:56:31.782Z,4.88
2022-12-05T20:59:01.031Z,4.32
2022-12-05T21:01:29.221Z,4.55
2022-12-05T21:03:56.523Z,5.13
2022-12-05T21:06:28.604Z,4.47
2022-12-05T21:08:55.442Z,3.08
2022-12-05T21:11:23.619Z,4.95
2022-12-05T21:13:50.469Z,4.03
2022-12-05T21:16:21.387Z,4.68
2022-12-05T21:18:49.207Z,3.53
2022-12-05T21:21:21.969Z,3.40
2022-12-05T21:23:56.551Z,6.32
2022-12-05T21:26:27.204Z,3.40
2022-12-05T21:28:53.951Z,5.10
2022-12-05T21:31:21.932Z,4.15
2022-12-05T21:33:55.070Z,4.45
2022-12-05T21:36:22.136Z,4.50
2022-12-05T21:38:54.131Z,4.22
2022-12-05T21:41:22.538Z,4.45
2022-12-05T21:43:54.007Z,3.33
2022-12-05T21:46:21.095Z,4.05
2022-12-05T21:48:47.735Z,3.92
2022-12-05T21:51:14.338Z,3.40
2022-12-05T21:53:43.576Z,3.25
2022-12-05T21:56:15.611Z,3.85
2022-12-05T21:58:43.925Z,3.08
2022-12-05T22:01:17.550Z,3.70
2022-12-05T22:03:44.271Z,3.60
2022-12-05T22:06:12.209Z,3.90
2022-12-05T22:08:39.495Z,2.97
2022-12-05T22:11:14.849Z,3.65
2022-12-05T22:13:42.546Z,3.65
2022-12-05T22:16:09.181Z,4.03
2022-12-05T22:18:36.347Z,4.50
2022-12-05T22:21:17.410Z,4.72
2022-12-05T22:23:44.090Z,4.47
2022-12-05T22:26:13.176Z,4.07
2022-12-05T22:28:40.066Z,3.78
2022-12-05T22:31:10.419Z,3.90
2022-12-05T22:33:37.795Z,4.03
2022-12-05T22:36:07.870Z,3.67
2022-12-05T22:38:36.889Z,4.25
2022-12-05T22:41:06.749Z,4.28
2022-12-05T22:43:35.239Z,6.00
2022-12-05T22:46:06.544Z,5.35
2022-12-05T22:48:33.556Z,4.38
2022-12-05T22:51:01.243Z,3.58
2022-12-05T22:53:28.462Z,3.90
2022-12-05T22:56:04.473Z,4.00
2022-12-05T22:58:31.052Z,3.92
2022-12-05T23:00:57.499Z,3.28
2022-12-05T23:03:26.515Z,3.88
2022-12-05T23:05:53.103Z,3.25
2022-12-05T23:08:22.127Z,4.28
2022-12-05T23:10:48.563Z,4.10
2022-12-05T23:13:14.975Z,3.55
2022-12-05T23:15:41.467Z,4.45
2022-12-05T23:18:10.523Z,3.75
2022-12-05T23:20:37.028Z,3.33
2022-12-05T23:23:03.547Z,3.53
2022-12-05T23:25:30.003Z,4.10
2022-12-05T23:27:56.427Z,3.95
2022-12-05T23:30:22.973Z,4.07
2022-12-05T23:32:49.464Z,3.60
2022-12-05T23:35:16.270Z,3.05
2022-12-05T23:37:48.577Z,2.88
2022-12-05T23:40:18.609Z,3.60
2022-12-05T23:42:45.045Z,2.95
2022-12-05T23:45:11.589Z,2.75
2022-12-05T23:47:38.027Z,3.17
2022-12-05T23:50:05.073Z,2.70
2022-12-05T23:52:31.920Z,3.60
2022-12-05T23:54:58.511Z,3.28
2022-12-05T23:57:24.964Z,3.47
2022-12-05T23:59:51.360Z,3.65
